Leet, West Virginia
Current Conditions -  °F | °C
As of 9:15 AM on Tuesday 27 Jan 2015 (Local Time) from KSJS Reporting Station
Overcast Overcast  
Wind Chill: 24°   Ceiling: 2300
Heat Index: 24°   Visibility: 10mi
Dew Point: 20°   Wind: 3mph
Humidity: 85%   Direction: 320°NW
Pressure: 29.97"   Gusts: NA
Location:  37.9989°N, 82.1851°W
Report Text: KSJS 271415Z AUTO 32003KT 10SM SCT011 OVC023 M04/M06 A2997 RMK AO2 T10421064
Loading
Personal Weather Stations






























Interactive Weather Map New forecast layout! Learn more

10-Day Weather Forecast

Advertisements
Track Severe Weather on mobile